sensor_id;sensor_type;location;lat;lon;timestamp;P1;durP1;ratioP1;P2;durP2;ratioP2
12814;SDS011;6472;52.328;13.070;2022-09-12T00:01:06;3.70;;;3.27;;
12814;SDS011;6472;52.328;13.070;2022-09-12T00:03:35;3.43;;;2.83;;
12814;SDS011;6472;52.328;13.070;2022-09-12T00:06:07;2.80;;;2.60;;
12814;SDS011;6472;52.328;13.070;2022-09-12T00:08:37;3.00;;;2.80;;
12814;SDS011;6472;52.328;13.070;2022-09-12T00:11:06;3.17;;;2.87;;
12814;SDS011;6472;52.328;13.070;2022-09-12T00:13:37;3.63;;;3.03;;
12814;SDS011;6472;52.328;13.070;2022-09-12T00:16:09;3.87;;;2.77;;
12814;SDS011;6472;52.328;13.070;2022-09-12T00:18:42;2.53;;;2.33;;
12814;SDS011;6472;52.328;13.070;2022-09-12T00:21:12;3.27;;;2.80;;
12814;SDS011;6472;52.328;13.070;2022-09-12T00:23:41;4.13;;;3.10;;
12814;SDS011;6472;52.328;13.070;2022-09-12T00:26:10;3.03;;;2.37;;
12814;SDS011;6472;52.328;13.070;2022-09-12T00:28:40;4.97;;;3.30;;
12814;SDS011;6472;52.328;13.070;2022-09-12T00:31:10;2.77;;;2.37;;
12814;SDS011;6472;52.328;13.070;2022-09-12T00:33:40;3.23;;;2.93;;
12814;SDS011;6472;52.328;13.070;2022-09-12T00:36:09;2.80;;;2.60;;
12814;SDS011;6472;52.328;13.070;2022-09-12T00:38:40;4.07;;;3.20;;
12814;SDS011;6472;52.328;13.070;2022-09-12T00:41:09;4.77;;;3.10;;
12814;SDS011;6472;52.328;13.070;2022-09-12T00:43:44;3.50;;;2.77;;
12814;SDS011;6472;52.328;13.070;2022-09-12T00:46:15;4.00;;;2.73;;
12814;SDS011;6472;52.328;13.070;2022-09-12T00:48:53;3.87;;;2.67;;
12814;SDS011;6472;52.328;13.070;2022-09-12T00:51:24;2.33;;;2.13;;
12814;SDS011;6472;52.328;13.070;2022-09-12T00:53:53;3.13;;;2.83;;
12814;SDS011;6472;52.328;13.070;2022-09-12T00:56:22;5.67;;;2.80;;
12814;SDS011;6472;52.328;13.070;2022-09-12T00:58:54;3.00;;;2.70;;
12814;SDS011;6472;52.328;13.070;2022-09-12T01:04:05;3.20;;;2.90;;
12814;SDS011;6472;52.328;13.070;2022-09-12T01:06:35;2.70;;;2.50;;
12814;SDS011;6472;52.328;13.070;2022-09-12T01:09:06;3.07;;;2.77;;
12814;SDS011;6472;52.328;13.070;2022-09-12T01:11:36;2.93;;;2.73;;
12814;SDS011;6472;52.328;13.070;2022-09-12T01:14:07;2.80;;;2.60;;
12814;SDS011;6472;52.328;13.070;2022-09-12T01:16:35;3.20;;;2.80;;
12814;SDS011;6472;52.328;13.070;2022-09-12T01:19:07;3.13;;;2.83;;
12814;SDS011;6472;52.328;13.070;2022-09-12T01:21:54;2.00;;;1.90;;
12814;SDS011;6472;52.328;13.070;2022-09-12T01:24:53;2.77;;;2.53;;
12814;SDS011;6472;52.328;13.070;2022-09-12T01:27:32;2.70;;;2.50;;
12814;SDS011;6472;52.328;13.070;2022-09-12T01:33:20;4.50;;;3.00;;
12814;SDS011;6472;52.328;13.070;2022-09-12T01:36:03;3.40;;;2.33;;
12814;SDS011;6472;52.328;13.070;2022-09-12T01:38:43;3.87;;;2.90;;
12814;SDS011;6472;52.328;13.070;2022-09-12T01:41:15;3.10;;;2.70;;
12814;SDS011;6472;52.328;13.070;2022-09-12T01:43:54;2.77;;;2.57;;
12814;SDS011;6472;52.328;13.070;2022-09-12T01:46:28;4.77;;;2.53;;
12814;SDS011;6472;52.328;13.070;2022-09-12T01:49:04;2.83;;;2.50;;
12814;SDS011;6472;52.328;13.070;2022-09-12T01:51:37;2.53;;;2.33;;
12814;SDS011;6472;52.328;13.070;2022-09-12T01:54:09;2.73;;;2.53;;
12814;SDS011;6472;52.328;13.070;2022-09-12T01:56:40;2.83;;;2.40;;
12814;SDS011;6472;52.328;13.070;2022-09-12T01:59:11;2.23;;;2.13;;
12814;SDS011;6472;52.328;13.070;2022-09-12T02:01:44;3.83;;;2.87;;
12814;SDS011;6472;52.328;13.070;2022-09-12T02:04:19;2.50;;;2.30;;
12814;SDS011;6472;52.328;13.070;2022-09-12T02:06:51;4.03;;;2.90;;
12814;SDS011;6472;52.328;13.070;2022-09-12T02:09:24;3.60;;;2.80;;
12814;SDS011;6472;52.328;13.070;2022-09-12T02:11:56;3.90;;;2.53;;
12814;SDS011;6472;52.328;13.070;2022-09-12T02:14:27;2.87;;;2.63;;
12814;SDS011;6472;52.328;13.070;2022-09-12T02:16:58;2.67;;;2.47;;
12814;SDS011;6472;52.328;13.070;2022-09-12T02:19:36;2.43;;;2.23;;
12814;SDS011;6472;52.328;13.070;2022-09-12T02:22:08;3.23;;;2.47;;
12814;SDS011;6472;52.328;13.070;2022-09-12T02:24:41;2.30;;;2.10;;
12814;SDS011;6472;52.328;13.070;2022-09-12T02:27:13;4.10;;;2.87;;
12814;SDS011;6472;52.328;13.070;2022-09-12T02:29:43;2.53;;;2.33;;
12814;SDS011;6472;52.328;13.070;2022-09-12T02:32:14;3.83;;;2.67;;
12814;SDS011;6472;52.328;13.070;2022-09-12T02:34:53;3.30;;;2.70;;
12814;SDS011;6472;52.328;13.070;2022-09-12T02:37:29;3.60;;;2.87;;
12814;SDS011;6472;52.328;13.070;2022-09-12T02:40:04;3.00;;;2.30;;
12814;SDS011;6472;52.328;13.070;2022-09-12T02:42:34;3.93;;;2.20;;
12814;SDS011;6472;52.328;13.070;2022-09-12T02:45:02;2.63;;;2.43;;
12814;SDS011;6472;52.328;13.070;2022-09-12T02:47:31;2.10;;;1.97;;
12814;SDS011;6472;52.328;13.070;2022-09-12T02:50:05;5.63;;;2.83;;
12814;SDS011;6472;52.328;13.070;2022-09-12T02:52:35;2.57;;;2.37;;
12814;SDS011;6472;52.328;13.070;2022-09-12T02:55:04;2.63;;;2.43;;
12814;SDS011;6472;52.328;13.070;2022-09-12T02:57:33;3.17;;;2.53;;
12814;SDS011;6472;52.328;13.070;2022-09-12T03:00:02;5.63;;;2.40;;
12814;SDS011;6472;52.328;13.070;2022-09-12T03:02:34;2.37;;;2.17;;
12814;SDS011;6472;52.328;13.070;2022-09-12T03:05:17;2.40;;;2.20;;
12814;SDS011;6472;52.328;13.070;2022-09-12T03:07:54;3.67;;;2.10;;
12814;SDS011;6472;52.328;13.070;2022-09-12T03:10:35;2.57;;;2.37;;
12814;SDS011;6472;52.328;13.070;2022-09-12T03:13:13;2.87;;;2.37;;
12814;SDS011;6472;52.328;13.070;2022-09-12T03:15:48;2.87;;;2.50;;
12814;SDS011;6472;52.328;13.070;2022-09-12T03:18:28;2.93;;;2.67;;
12814;SDS011;6472;52.328;13.070;2022-09-12T03:21:07;3.23;;;2.67;;
12814;SDS011;6472;52.328;13.070;2022-09-12T03:23:41;3.10;;;2.50;;
12814;SDS011;6472;52.328;13.070;2022-09-12T03:26:18;3.30;;;2.20;;
12814;SDS011;6472;52.328;13.070;2022-09-12T03:28:52;2.93;;;2.57;;
12814;SDS011;6472;52.328;13.070;2022-09-12T03:31:22;2.70;;;2.50;;
12814;SDS011;6472;52.328;13.070;2022-09-12T03:33:50;2.97;;;2.67;;
12814;SDS011;6472;52.328;13.070;2022-09-12T03:36:20;2.63;;;2.43;;
12814;SDS011;6472;52.328;13.070;2022-09-12T03:38:50;2.87;;;2.57;;
12814;SDS011;6472;52.328;13.070;2022-09-12T03:41:19;5.80;;;2.00;;
12814;SDS011;6472;52.328;13.070;2022-09-12T03:43:47;3.13;;;2.73;;
12814;SDS011;6472;52.328;13.070;2022-09-12T03:46:16;2.70;;;2.50;;
12814;SDS011;6472;52.328;13.070;2022-09-12T03:48:44;2.77;;;2.43;;
12814;SDS011;6472;52.328;13.070;2022-09-12T03:51:12;4.03;;;2.10;;
12814;SDS011;6472;52.328;13.070;2022-09-12T03:53:41;2.90;;;2.60;;
12814;SDS011;6472;52.328;13.070;2022-09-12T03:56:10;2.47;;;2.27;;
12814;SDS011;6472;52.328;13.070;2022-09-12T03:58:38;2.23;;;2.03;;
12814;SDS011;6472;52.328;13.070;2022-09-12T04:01:08;2.77;;;2.57;;
12814;SDS011;6472;52.328;13.070;2022-09-12T04:03:38;2.17;;;2.07;;
12814;SDS011;6472;52.328;13.070;2022-09-12T04:06:07;2.03;;;1.93;;
12814;SDS011;6472;52.328;13.070;2022-09-12T04:08:37;2.37;;;2.07;;
12814;SDS011;6472;52.328;13.070;2022-09-12T04:11:07;2.00;;;1.90;;
12814;SDS011;6472;52.328;13.070;2022-09-12T04:13:38;2.80;;;2.53;;
12814;SDS011;6472;52.328;13.070;2022-09-12T04:16:07;7.17;;;2.33;;
12814;SDS011;6472;52.328;13.070;2022-09-12T04:18:36;2.00;;;1.77;;
12814;SDS011;6472;52.328;13.070;2022-09-12T04:21:05;2.53;;;2.33;;
12814;SDS011;6472;52.328;13.070;2022-09-12T04:23:34;2.50;;;2.20;;
12814;SDS011;6472;52.328;13.070;2022-09-12T04:26:02;2.50;;;2.30;;
12814;SDS011;6472;52.328;13.070;2022-09-12T04:28:33;2.50;;;2.30;;
12814;SDS011;6472;52.328;13.070;2022-09-12T04:31:02;2.37;;;2.10;;
12814;SDS011;6472;52.328;13.070;2022-09-12T04:33:32;2.50;;;2.30;;
12814;SDS011;6472;52.328;13.070;2022-09-12T04:36:02;3.67;;;2.53;;
12814;SDS011;6472;52.328;13.070;2022-09-12T04:38:31;3.67;;;2.50;;
12814;SDS011;6472;52.328;13.070;2022-09-12T04:40:59;2.67;;;2.47;;
12814;SDS011;6472;52.328;13.070;2022-09-12T04:43:27;2.90;;;2.60;;
12814;SDS011;6472;52.328;13.070;2022-09-12T04:45:56;2.83;;;2.57;;
12814;SDS011;6472;52.328;13.070;2022-09-12T04:48:31;2.63;;;2.43;;
12814;SDS011;6472;52.328;13.070;2022-09-12T04:51:06;2.87;;;2.57;;
12814;SDS011;6472;52.328;13.070;2022-09-12T04:53:38;3.50;;;2.43;;
12814;SDS011;6472;52.328;13.070;2022-09-12T04:56:07;2.40;;;2.20;;
12814;SDS011;6472;52.328;13.070;2022-09-12T04:58:37;5.03;;;2.53;;
12814;SDS011;6472;52.328;13.070;2022-09-12T05:01:08;2.83;;;2.40;;
12814;SDS011;6472;52.328;13.070;2022-09-12T05:03:37;3.30;;;2.80;;
12814;SDS011;6472;52.328;13.070;2022-09-12T05:06:10;3.17;;;2.87;;
12814;SDS011;6472;52.328;13.070;2022-09-12T05:08:40;3.60;;;3.13;;
12814;SDS011;6472;52.328;13.070;2022-09-12T05:11:09;3.53;;;2.40;;
12814;SDS011;6472;52.328;13.070;2022-09-12T05:13:39;3.73;;;2.70;;
12814;SDS011;6472;52.328;13.070;2022-09-12T05:16:10;3.87;;;3.10;;
12814;SDS011;6472;52.328;13.070;2022-09-12T05:18:41;3.23;;;2.83;;
12814;SDS011;6472;52.328;13.070;2022-09-12T05:21:11;2.60;;;2.33;;
12814;SDS011;6472;52.328;13.070;2022-09-12T05:23:41;5.30;;;2.90;;
12814;SDS011;6472;52.328;13.070;2022-09-12T05:26:10;3.97;;;3.17;;
12814;SDS011;6472;52.328;13.070;2022-09-12T05:28:39;6.43;;;2.97;;
12814;SDS011;6472;52.328;13.070;2022-09-12T05:31:11;4.40;;;3.20;;
12814;SDS011;6472;52.328;13.070;2022-09-12T05:33:40;4.57;;;3.03;;
12814;SDS011;6472;52.328;13.070;2022-09-12T05:36:10;3.80;;;3.13;;
12814;SDS011;6472;52.328;13.070;2022-09-12T05:38:40;4.93;;;3.30;;
12814;SDS011;6472;52.328;13.070;2022-09-12T05:41:09;4.00;;;3.60;;
12814;SDS011;6472;52.328;13.070;2022-09-12T05:43:45;3.40;;;3.10;;
12814;SDS011;6472;52.328;13.070;2022-09-12T05:46:16;7.87;;;3.90;;
12814;SDS011;6472;52.328;13.070;2022-09-12T05:48:45;5.37;;;3.33;;
12814;SDS011;6472;52.328;13.070;2022-09-12T05:51:21;5.80;;;3.53;;
12814;SDS011;6472;52.328;13.070;2022-09-12T05:53:51;4.83;;;3.43;;
12814;SDS011;6472;52.328;13.070;2022-09-12T05:56:20;3.90;;;3.50;;
12814;SDS011;6472;52.328;13.070;2022-09-12T05:58:51;3.73;;;3.03;;
12814;SDS011;6472;52.328;13.070;2022-09-12T06:01:22;3.63;;;3.03;;
12814;SDS011;6472;52.328;13.070;2022-09-12T06:03:51;4.40;;;2.90;;
12814;SDS011;6472;52.328;13.070;2022-09-12T06:06:21;3.67;;;3.20;;
12814;SDS011;6472;52.328;13.070;2022-09-12T06:08:51;5.63;;;2.90;;
12814;SDS011;6472;52.328;13.070;2022-09-12T06:11:21;5.17;;;3.20;;
12814;SDS011;6472;52.328;13.070;2022-09-12T06:13:51;6.47;;;2.93;;
12814;SDS011;6472;52.328;13.070;2022-09-12T06:16:20;6.30;;;3.10;;
12814;SDS011;6472;52.328;13.070;2022-09-12T06:18:53;4.50;;;3.17;;
12814;SDS011;6472;52.328;13.070;2022-09-12T06:21:22;3.47;;;2.93;;
12814;SDS011;6472;52.328;13.070;2022-09-12T06:23:52;5.57;;;3.53;;
12814;SDS011;6472;52.328;13.070;2022-09-12T06:26:21;4.77;;;2.50;;
12814;SDS011;6472;52.328;13.070;2022-09-12T06:28:51;3.30;;;2.73;;
12814;SDS011;6472;52.328;13.070;2022-09-12T06:31:21;5.63;;;3.20;;
12814;SDS011;6472;52.328;13.070;2022-09-12T06:33:52;4.87;;;3.73;;
12814;SDS011;6472;52.328;13.070;2022-09-12T06:36:21;5.03;;;4.10;;
12814;SDS011;6472;52.328;13.070;2022-09-12T06:38:54;4.67;;;4.20;;
12814;SDS011;6472;52.328;13.070;2022-09-12T06:41:23;4.10;;;3.67;;
12814;SDS011;6472;52.328;13.070;2022-09-12T06:43:52;3.70;;;3.23;;
12814;SDS011;6472;52.328;13.070;2022-09-12T06:46:20;5.77;;;4.23;;
12814;SDS011;6472;52.328;13.070;2022-09-12T06:48:50;6.47;;;4.77;;
12814;SDS011;6472;52.328;13.070;2022-09-12T06:51:18;4.60;;;4.20;;
12814;SDS011;6472;52.328;13.070;2022-09-12T06:53:47;6.87;;;5.03;;
12814;SDS011;6472;52.328;13.070;2022-09-12T06:56:16;5.70;;;4.50;;
12814;SDS011;6472;52.328;13.070;2022-09-12T06:58:45;6.27;;;5.03;;
12814;SDS011;6472;52.328;13.070;2022-09-12T07:03:46;11.17;;;5.07;;
12814;SDS011;6472;52.328;13.070;2022-09-12T07:06:17;5.77;;;4.97;;
12814;SDS011;6472;52.328;13.070;2022-09-12T07:08:47;6.97;;;5.00;;
12814;SDS011;6472;52.328;13.070;2022-09-12T07:11:15;6.30;;;4.77;;
12814;SDS011;6472;52.328;13.070;2022-09-12T07:13:46;6.43;;;4.73;;
12814;SDS011;6472;52.328;13.070;2022-09-12T07:16:15;5.33;;;4.50;;
12814;SDS011;6472;52.328;13.070;2022-09-12T07:18:48;4.93;;;4.23;;
12814;SDS011;6472;52.328;13.070;2022-09-12T07:21:19;5.93;;;4.30;;
12814;SDS011;6472;52.328;13.070;2022-09-12T07:23:47;5.97;;;4.47;;
12814;SDS011;6472;52.328;13.070;2022-09-12T07:26:17;5.13;;;4.10;;
12814;SDS011;6472;52.328;13.070;2022-09-12T07:28:49;3.97;;;3.57;;
12814;SDS011;6472;52.328;13.070;2022-09-12T07:31:19;3.97;;;3.33;;
12814;SDS011;6472;52.328;13.070;2022-09-12T07:33:49;4.77;;;4.33;;
12814;SDS011;6472;52.328;13.070;2022-09-12T07:36:22;5.77;;;4.67;;
12814;SDS011;6472;52.328;13.070;2022-09-12T07:38:54;5.10;;;4.10;;
12814;SDS011;6472;52.328;13.070;2022-09-12T07:41:24;5.90;;;4.57;;
12814;SDS011;6472;52.328;13.070;2022-09-12T07:43:53;4.60;;;4.20;;
12814;SDS011;6472;52.328;13.070;2022-09-12T07:46:22;4.53;;;4.03;;
12814;SDS011;6472;52.328;13.070;2022-09-12T07:48:51;4.72;;;2.92;;
12814;SDS011;6472;52.328;13.070;2022-09-12T07:51:22;3.60;;;3.30;;
12814;SDS011;6472;52.328;13.070;2022-09-12T07:53:51;3.33;;;2.97;;
12814;SDS011;6472;52.328;13.070;2022-09-12T07:56:19;2.88;;;2.58;;
12814;SDS011;6472;52.328;13.070;2022-09-12T07:58:54;2.47;;;2.28;;
12814;SDS011;6472;52.328;13.070;2022-09-12T08:01:22;2.55;;;2.35;;
12814;SDS011;6472;52.328;13.070;2022-09-12T08:03:52;2.03;;;1.92;;
12814;SDS011;6472;52.328;13.070;2022-09-12T08:06:23;3.97;;;1.75;;
12814;SDS011;6472;52.328;13.070;2022-09-12T08:08:53;2.03;;;1.90;;
12814;SDS011;6472;52.328;13.070;2022-09-12T08:11:23;2.17;;;1.98;;
12814;SDS011;6472;52.328;13.070;2022-09-12T08:13:53;2.63;;;1.98;;
12814;SDS011;6472;52.328;13.070;2022-09-12T08:16:23;2.05;;;1.90;;
12814;SDS011;6472;52.328;13.070;2022-09-12T08:18:52;1.80;;;1.70;;
12814;SDS011;6472;52.328;13.070;2022-09-12T08:21:21;1.88;;;1.58;;
12814;SDS011;6472;52.328;13.070;2022-09-12T08:23:52;1.90;;;1.80;;
12814;SDS011;6472;52.328;13.070;2022-09-12T08:26:21;2.28;;;1.70;;
12814;SDS011;6472;52.328;13.070;2022-09-12T08:28:50;2.97;;;1.73;;
12814;SDS011;6472;52.328;13.070;2022-09-12T08:31:19;4.05;;;1.60;;
12814;SDS011;6472;52.328;13.070;2022-09-12T08:33:48;1.33;;;1.23;;
12814;SDS011;6472;52.328;13.070;2022-09-12T08:36:17;1.38;;;1.38;;
12814;SDS011;6472;52.328;13.070;2022-09-12T08:38:48;1.70;;;1.60;;
12814;SDS011;6472;52.328;13.070;2022-09-12T08:41:25;1.83;;;1.73;;
12814;SDS011;6472;52.328;13.070;2022-09-12T08:43:58;1.30;;;1.20;;
12814;SDS011;6472;52.328;13.070;2022-09-12T08:46:41;1.23;;;1.20;;
12814;SDS011;6472;52.328;13.070;2022-09-12T08:49:20;1.42;;;1.20;;
12814;SDS011;6472;52.328;13.070;2022-09-12T08:51:53;1.60;;;1.50;;
12814;SDS011;6472;52.328;13.070;2022-09-12T08:54:25;1.20;;;1.20;;
12814;SDS011;6472;52.328;13.070;2022-09-12T08:56:57;2.33;;;1.40;;
12814;SDS011;6472;52.328;13.070;2022-09-12T08:59:29;1.33;;;1.20;;
12814;SDS011;6472;52.328;13.070;2022-09-12T09:02:03;1.45;;;1.35;;
12814;SDS011;6472;52.328;13.070;2022-09-12T09:04:42;3.60;;;1.40;;
12814;SDS011;6472;52.328;13.070;2022-09-12T09:07:28;1.27;;;1.20;;
12814;SDS011;6472;52.328;13.070;2022-09-12T09:10:16;1.08;;;1.08;;
12814;SDS011;6472;52.328;13.070;2022-09-12T09:12:52;0.93;;;0.93;;
12814;SDS011;6472;52.328;13.070;2022-09-12T09:15:33;2.58;;;1.30;;
12814;SDS011;6472;52.328;13.070;2022-09-12T09:18:09;5.30;;;1.95;;
12814;SDS011;6472;52.328;13.070;2022-09-12T09:20:44;1.42;;;1.25;;
12814;SDS011;6472;52.328;13.070;2022-09-12T09:23:19;0.93;;;0.90;;
12814;SDS011;6472;52.328;13.070;2022-09-12T09:25:50;0.90;;;0.90;;
12814;SDS011;6472;52.328;13.070;2022-09-12T09:28:24;1.05;;;1.05;;
12814;SDS011;6472;52.328;13.070;2022-09-12T09:30:58;1.38;;;1.27;;
12814;SDS011;6472;52.328;13.070;2022-09-12T09:33:27;1.40;;;1.23;;
12814;SDS011;6472;52.328;13.070;2022-09-12T09:36:01;2.00;;;1.10;;
12814;SDS011;6472;52.328;13.070;2022-09-12T09:38:39;0.93;;;0.77;;
12814;SDS011;6472;52.328;13.070;2022-09-12T09:44:10;1.00;;;1.00;;
12814;SDS011;6472;52.328;13.070;2022-09-12T09:46:38;0.70;;;0.70;;
12814;SDS011;6472;52.328;13.070;2022-09-12T09:49:08;1.25;;;0.90;;
12814;SDS011;6472;52.328;13.070;2022-09-12T09:51:39;0.88;;;0.88;;
12814;SDS011;6472;52.328;13.070;2022-09-12T09:54:11;1.63;;;1.10;;
12814;SDS011;6472;52.328;13.070;2022-09-12T09:56:44;1.63;;;1.27;;
12814;SDS011;6472;52.328;13.070;2022-09-12T09:59:16;3.45;;;1.30;;
12814;SDS011;6472;52.328;13.070;2022-09-12T10:01:46;1.08;;;1.08;;
12814;SDS011;6472;52.328;13.070;2022-09-12T10:04:19;0.80;;;0.80;;
12814;SDS011;6472;52.328;13.070;2022-09-12T10:06:49;1.02;;;1.02;;
12814;SDS011;6472;52.328;13.070;2022-09-12T10:09:21;0.90;;;0.90;;
12814;SDS011;6472;52.328;13.070;2022-09-12T10:11:51;1.50;;;1.17;;
12814;SDS011;6472;52.328;13.070;2022-09-12T10:14:28;0.93;;;0.93;;
12814;SDS011;6472;52.328;13.070;2022-09-12T10:17:00;0.95;;;0.95;;
12814;SDS011;6472;52.328;13.070;2022-09-12T10:19:47;1.30;;;1.20;;
12814;SDS011;6472;52.328;13.070;2022-09-12T10:22:35;1.10;;;1.10;;
12814;SDS011;6472;52.328;13.070;2022-09-12T10:25:05;1.42;;;1.30;;
12814;SDS011;6472;52.328;13.070;2022-09-12T10:27:38;1.00;;;1.00;;
12814;SDS011;6472;52.328;13.070;2022-09-12T10:30:16;2.22;;;1.23;;
12814;SDS011;6472;52.328;13.070;2022-09-12T10:32:47;1.00;;;0.90;;
12814;SDS011;6472;52.328;13.070;2022-09-12T10:35:17;0.80;;;0.80;;
12814;SDS011;6472;52.328;13.070;2022-09-12T10:37:51;1.48;;;1.25;;
12814;SDS011;6472;52.328;13.070;2022-09-12T10:40:22;1.30;;;1.05;;
12814;SDS011;6472;52.328;13.070;2022-09-12T10:42:53;0.88;;;0.88;;
12814;SDS011;6472;52.328;13.070;2022-09-12T10:45:26;1.10;;;1.00;;
12814;SDS011;6472;52.328;13.070;2022-09-12T10:47:55;1.20;;;1.08;;
12814;SDS011;6472;52.328;13.070;2022-09-12T10:50:30;1.10;;;0.85;;
12814;SDS011;6472;52.328;13.070;2022-09-12T10:56:01;1.08;;;1.08;;
12814;SDS011;6472;52.328;13.070;2022-09-12T11:01:39;0.80;;;0.80;;
12814;SDS011;6472;52.328;13.070;2022-09-12T11:04:28;1.65;;;0.80;;
12814;SDS011;6472;52.328;13.070;2022-09-12T11:13:12;1.42;;;0.88;;
12814;SDS011;6472;52.328;13.070;2022-09-12T11:15:54;0.95;;;0.75;;
12814;SDS011;6472;52.328;13.070;2022-09-12T11:18:48;0.85;;;0.85;;
12814;SDS011;6472;52.328;13.070;2022-09-12T11:21:33;1.00;;;1.00;;
12814;SDS011;6472;52.328;13.070;2022-09-12T11:24:26;0.80;;;0.80;;
12814;SDS011;6472;52.328;13.070;2022-09-12T11:27:16;0.90;;;0.90;;
12814;SDS011;6472;52.328;13.070;2022-09-12T11:30:01;0.80;;;0.80;;
12814;SDS011;6472;52.328;13.070;2022-09-12T11:35:32;0.98;;;0.90;;
12814;SDS011;6472;52.328;13.070;2022-09-12T11:38:11;1.13;;;1.13;;
12814;SDS011;6472;52.328;13.070;2022-09-12T11:40:49;1.20;;;1.20;;
12814;SDS011;6472;52.328;13.070;2022-09-12T11:43:22;0.93;;;0.93;;
12814;SDS011;6472;52.328;13.070;2022-09-12T11:45:59;1.25;;;0.90;;
12814;SDS011;6472;52.328;13.070;2022-09-12T11:48:35;0.93;;;0.93;;
12814;SDS011;6472;52.328;13.070;2022-09-12T11:51:14;1.15;;;0.80;;
12814;SDS011;6472;52.328;13.070;2022-09-12T11:53:46;1.02;;;0.93;;
12814;SDS011;6472;52.328;13.070;2022-09-12T11:56:26;0.73;;;0.73;;
12814;SDS011;6472;52.328;13.070;2022-09-12T11:58:56;2.00;;;0.85;;
12814;SDS011;6472;52.328;13.070;2022-09-12T12:01:30;1.38;;;1.27;;
12814;SDS011;6472;52.328;13.070;2022-09-12T12:04:10;0.95;;;0.85;;
12814;SDS011;6472;52.328;13.070;2022-09-12T12:06:44;1.48;;;1.33;;
12814;SDS011;6472;52.328;13.070;2022-09-12T12:09:15;1.30;;;1.30;;
12814;SDS011;6472;52.328;13.070;2022-09-12T12:11:46;2.58;;;0.90;;
12814;SDS011;6472;52.328;13.070;2022-09-12T12:14:17;1.00;;;0.98;;
12814;SDS011;6472;52.328;13.070;2022-09-12T12:16:47;1.58;;;0.98;;
12814;SDS011;6472;52.328;13.070;2022-09-12T12:22:06;1.52;;;1.00;;
12814;SDS011;6472;52.328;13.070;2022-09-12T12:27:48;0.70;;;0.70;;
12814;SDS011;6472;52.328;13.070;2022-09-12T12:36:28;1.58;;;0.80;;
12814;SDS011;6472;52.328;13.070;2022-09-12T12:48:33;1.15;;;1.05;;
12814;SDS011;6472;52.328;13.070;2022-09-12T12:51:13;0.60;;;0.60;;
12814;SDS011;6472;52.328;13.070;2022-09-12T12:53:43;1.50;;;1.00;;
12814;SDS011;6472;52.328;13.070;2022-09-12T12:56:24;3.63;;;1.10;;
12814;SDS011;6472;52.328;13.070;2022-09-12T12:58:58;0.88;;;0.80;;
12814;SDS011;6472;52.328;13.070;2022-09-12T13:01:29;0.80;;;0.80;;
12814;SDS011;6472;52.328;13.070;2022-09-12T13:03:59;0.80;;;0.80;;
12814;SDS011;6472;52.328;13.070;2022-09-12T13:06:30;0.80;;;0.80;;
12814;SDS011;6472;52.328;13.070;2022-09-12T13:09:02;2.60;;;1.05;;
12814;SDS011;6472;52.328;13.070;2022-09-12T13:11:33;2.22;;;0.90;;
12814;SDS011;6472;52.328;13.070;2022-09-12T13:14:04;3.05;;;0.90;;
12814;SDS011;6472;52.328;13.070;2022-09-12T13:16:35;0.93;;;0.90;;
12814;SDS011;6472;52.328;13.070;2022-09-12T13:19:06;0.82;;;0.63;;
12814;SDS011;6472;52.328;13.070;2022-09-12T13:21:53;1.02;;;0.98;;
12814;SDS011;6472;52.328;13.070;2022-09-12T13:24:22;1.63;;;0.77;;
12814;SDS011;6472;52.328;13.070;2022-09-12T13:26:51;1.33;;;0.90;;
12814;SDS011;6472;52.328;13.070;2022-09-12T13:29:20;0.90;;;0.90;;
12814;SDS011;6472;52.328;13.070;2022-09-12T13:31:50;1.25;;;1.15;;
12814;SDS011;6472;52.328;13.070;2022-09-12T13:34:23;1.15;;;1.05;;
12814;SDS011;6472;52.328;13.070;2022-09-12T13:39:55;2.42;;;1.08;;
12814;SDS011;6472;52.328;13.070;2022-09-12T13:42:36;0.80;;;0.80;;
12814;SDS011;6472;52.328;13.070;2022-09-12T13:45:09;2.88;;;1.00;;
12814;SDS011;6472;52.328;13.070;2022-09-12T13:47:45;2.85;;;0.90;;
12814;SDS011;6472;52.328;13.070;2022-09-12T13:50:17;0.90;;;0.90;;
12814;SDS011;6472;52.328;13.070;2022-09-12T13:52:50;0.93;;;0.93;;
12814;SDS011;6472;52.328;13.070;2022-09-12T13:55:27;0.88;;;0.60;;
12814;SDS011;6472;52.328;13.070;2022-09-12T13:57:58;1.27;;;1.17;;
12814;SDS011;6472;52.328;13.070;2022-09-12T14:00:28;0.95;;;0.82;;
12814;SDS011;6472;52.328;13.070;2022-09-12T14:02:57;2.45;;;1.20;;
12814;SDS011;6472;52.328;13.070;2022-09-12T14:05:45;2.03;;;1.10;;
12814;SDS011;6472;52.328;13.070;2022-09-12T14:08:21;1.08;;;0.98;;
12814;SDS011;6472;52.328;13.070;2022-09-12T14:10:50;0.90;;;0.90;;
12814;SDS011;6472;52.328;13.070;2022-09-12T14:13:19;3.90;;;0.80;;
12814;SDS011;6472;52.328;13.070;2022-09-12T14:15:49;0.80;;;0.80;;
12814;SDS011;6472;52.328;13.070;2022-09-12T14:18:22;0.93;;;0.90;;
12814;SDS011;6472;52.328;13.070;2022-09-12T14:20:53;0.88;;;0.88;;
12814;SDS011;6472;52.328;13.070;2022-09-12T14:23:24;1.02;;;0.93;;
12814;SDS011;6472;52.328;13.070;2022-09-12T14:25:55;0.98;;;0.90;;
12814;SDS011;6472;52.328;13.070;2022-09-12T14:28:25;1.23;;;0.80;;
12814;SDS011;6472;52.328;13.070;2022-09-12T14:30:56;1.92;;;0.88;;
12814;SDS011;6472;52.328;13.070;2022-09-12T14:33:31;1.00;;;1.00;;
12814;SDS011;6472;52.328;13.070;2022-09-12T14:36:09;2.05;;;1.38;;
12814;SDS011;6472;52.328;13.070;2022-09-12T14:38:42;0.70;;;0.70;;
12814;SDS011;6472;52.328;13.070;2022-09-12T14:41:12;1.30;;;1.20;;
12814;SDS011;6472;52.328;13.070;2022-09-12T14:43:50;1.17;;;1.10;;
12814;SDS011;6472;52.328;13.070;2022-09-12T14:46:22;0.90;;;0.90;;
12814;SDS011;6472;52.328;13.070;2022-09-12T14:48:52;1.00;;;1.00;;
12814;SDS011;6472;52.328;13.070;2022-09-12T14:51:26;1.85;;;1.00;;
12814;SDS011;6472;52.328;13.070;2022-09-12T14:53:58;1.13;;;1.13;;
12814;SDS011;6472;52.328;13.070;2022-09-12T14:56:36;0.80;;;0.80;;
12814;SDS011;6472;52.328;13.070;2022-09-12T14:59:26;1.50;;;0.90;;
12814;SDS011;6472;52.328;13.070;2022-09-12T15:04:52;1.30;;;1.20;;
12814;SDS011;6472;52.328;13.070;2022-09-12T15:07:42;2.08;;;0.80;;
12814;SDS011;6472;52.328;13.070;2022-09-12T15:10:19;3.33;;;1.10;;
12814;SDS011;6472;52.328;13.070;2022-09-12T15:13:02;1.00;;;1.00;;
12814;SDS011;6472;52.328;13.070;2022-09-12T15:15:39;0.88;;;0.88;;
12814;SDS011;6472;52.328;13.070;2022-09-12T15:18:08;1.73;;;1.13;;
12814;SDS011;6472;52.328;13.070;2022-09-12T15:20:36;0.85;;;0.85;;
12814;SDS011;6472;52.328;13.070;2022-09-12T15:23:09;2.10;;;1.00;;
12814;SDS011;6472;52.328;13.070;2022-09-12T15:25:41;0.70;;;0.70;;
12814;SDS011;6472;52.328;13.070;2022-09-12T15:28:12;3.15;;;1.20;;
12814;SDS011;6472;52.328;13.070;2022-09-12T15:30:43;3.92;;;1.00;;
12814;SDS011;6472;52.328;13.070;2022-09-12T15:33:12;1.38;;;1.27;;
12814;SDS011;6472;52.328;13.070;2022-09-12T15:35:40;2.17;;;1.00;;
12814;SDS011;6472;52.328;13.070;2022-09-12T15:38:09;0.85;;;0.85;;
12814;SDS011;6472;52.328;13.070;2022-09-12T15:40:37;0.90;;;0.90;;
12814;SDS011;6472;52.328;13.070;2022-09-12T15:43:06;1.30;;;1.20;;
12814;SDS011;6472;52.328;13.070;2022-09-12T15:45:34;1.48;;;1.23;;
12814;SDS011;6472;52.328;13.070;2022-09-12T15:48:02;1.02;;;1.02;;
12814;SDS011;6472;52.328;13.070;2022-09-12T15:50:30;1.20;;;1.20;;
12814;SDS011;6472;52.328;13.070;2022-09-12T15:52:58;1.38;;;1.00;;
12814;SDS011;6472;52.328;13.070;2022-09-12T15:55:28;0.93;;;0.93;;
12814;SDS011;6472;52.328;13.070;2022-09-12T15:57:58;1.63;;;1.15;;
12814;SDS011;6472;52.328;13.070;2022-09-12T16:00:32;0.90;;;0.90;;
12814;SDS011;6472;52.328;13.070;2022-09-12T16:03:00;1.67;;;1.25;;
12814;SDS011;6472;52.328;13.070;2022-09-12T16:05:28;2.42;;;1.05;;
12814;SDS011;6472;52.328;13.070;2022-09-12T16:07:56;0.65;;;0.65;;
12814;SDS011;6472;52.328;13.070;2022-09-12T16:10:25;1.30;;;1.20;;
12814;SDS011;6472;52.328;13.070;2022-09-12T16:12:56;6.65;;;1.10;;